Time;durP1;ratioP1;P1;durP2;ratioP2;P2;SDS_P1;SDS_P2;PMS_P1;PMS_P2;Temp;Humidity;BMP_temperature;BMP_pressure;BME280_temperature;BME280_humidity;BME280_pressure;Samples;Min_cycle;Max_cycle;Signal;HPM_P1;HPM_P2
2023/04/06 00:00:31;;;;;;;;;;;;;;;20.90;35.78;100432.02;103719;1291;61748;-84
2023/04/06 00:02:56;;;;;;;;;;;;;;;20.90;36.06;100426.64;103746;1291;61845;-83
2023/04/06 00:05:22;;;;;;;;;;;;;;;20.90;35.80;100432.35;103687;1286;61487;-84
2023/04/06 00:07:48;;;;;;;;;;;;;;;20.90;35.67;100432.85;103680;1286;61329;-84
2023/04/06 00:10:14;;;;;;;;;;;;;;;20.90;35.70;100427.28;103814;1286;61394;-83
2023/04/06 00:12:39;;;;;;;;;;;;;;;20.90;35.85;100426.40;103790;1286;61375;-84
2023/04/06 00:15:05;;;;;;;;;;;;;;;20.90;35.67;100422.79;103822;1291;62000;-84
2023/04/06 00:17:31;;;;;;;;;;;;;;;20.90;35.81;100422.73;103977;1286;62527;-83
2023/04/06 00:19:56;;;;;;;;;;;;;;;20.90;35.68;100421.03;104255;1286;61388;-83
2023/04/06 00:22:22;;;;;;;;;;;;;;;20.90;35.74;100418.13;103801;1290;61411;-84
2023/04/06 00:24:47;;;;;;;;;;;;;;;20.90;35.73;100414.11;103797;1286;62485;-83
2023/04/06 00:27:13;;;;;;;;;;;;;;;20.90;35.95;100416.54;103796;1286;61301;-83
2023/04/06 00:29:39;;;;;;;;;;;;;;;20.90;35.70;100414.07;103694;1286;61430;-83
2023/04/06 00:32:05;;;;;;;;;;;;;;;20.90;35.71;100408.19;103833;1291;61454;-83
2023/04/06 00:34:31;;;;;;;;;;;;;;;20.90;35.72;100412.30;103740;1286;61380;-83
2023/04/06 00:36:57;;;;;;;;;;;;;;;20.90;35.55;100410.11;103722;1286;61398;-83
2023/04/06 00:39:22;;;;;;;;;;;;;;;20.90;35.71;100406.36;103713;1286;62567;-83
2023/04/06 00:41:50;;;;;;;;;;;;;;;20.90;35.76;100402.98;103674;1290;61403;-84
2023/04/06 00:44:15;;;;;;;;;;;;;;;20.91;35.76;100405.06;103644;1286;72552;-84
2023/04/06 00:46:41;;;;;;;;;;;;;;;20.91;35.66;100401.33;103692;1290;61400;-83
2023/04/06 00:49:07;;;;;;;;;;;;;;;20.90;35.70;100401.90;103719;1290;61467;-84
2023/04/06 00:51:32;;;;;;;;;;;;;;;20.91;35.65;100400.41;103740;1286;61469;-83
2023/04/06 00:53:58;;;;;;;;;;;;;;;20.90;35.69;100394.56;103766;1291;61384;-83
2023/04/06 00:56:24;;;;;;;;;;;;;;;20.91;35.58;100397.75;103789;1286;61390;-84
2023/04/06 00:58:50;;;;;;;;;;;;;;;20.90;35.53;100394.24;103657;1286;61264;-83
2023/04/06 01:01:16;;;;;;;;;;;;;;;20.90;35.62;100391.70;103728;1291;62180;-83
2023/04/06 01:03:42;;;;;;;;;;;;;;;20.90;35.69;100391.53;103702;1286;61397;-84
2023/04/06 01:06:07;;;;;;;;;;;;;;;20.90;35.60;100385.13;103692;1291;61391;-83
2023/04/06 01:08:33;;;;;;;;;;;;;;;20.90;35.60;100385.50;103616;1291;61390;-84
2023/04/06 01:11:01;;;;;;;;;;;;;;;20.89;35.53;100381.76;103741;1286;61473;-84
2023/04/06 01:13:27;;;;;;;;;;;;;;;20.89;35.25;100384.68;103696;1291;61244;-83
2023/04/06 01:15:53;;;;;;;;;;;;;;;20.89;35.40;100381.68;103738;1286;62523;-84
2023/04/06 01:18:19;;;;;;;;;;;;;;;20.90;35.49;100378.55;103701;1291;61452;-84
2023/04/06 01:20:44;;;;;;;;;;;;;;;20.90;35.52;100378.06;103621;1291;62549;-83
2023/04/06 01:23:10;;;;;;;;;;;;;;;20.89;35.51;100372.73;103714;1286;61317;-84
2023/04/06 01:25:35;;;;;;;;;;;;;;;20.89;35.50;100363.79;103720;1291;61361;-83
2023/04/06 01:28:01;;;;;;;;;;;;;;;20.90;35.44;100360.16;103650;1286;62103;-84
2023/04/06 01:30:26;;;;;;;;;;;;;;;20.90;35.62;100355.55;103690;1286;61384;-83
2023/04/06 01:32:53;;;;;;;;;;;;;;;20.90;35.52;100353.10;103662;1291;61340;-83
2023/04/06 01:35:19;;;;;;;;;;;;;;;20.90;35.42;100347.92;103705;1291;61391;-83
2023/04/06 01:37:45;;;;;;;;;;;;;;;20.90;35.62;100346.15;103704;1286;61417;-84
2023/04/06 01:40:11;;;;;;;;;;;;;;;20.90;35.40;100342.29;103749;1286;61395;-84
2023/04/06 01:42:37;;;;;;;;;;;;;;;20.90;35.34;100344.59;103726;1286;62258;-84
2023/04/06 01:45:03;;;;;;;;;;;;;;;20.90;35.42;100345.59;103644;1291;61404;-83
2023/04/06 01:47:28;;;;;;;;;;;;;;;20.89;35.45;100343.52;103727;1291;61509;-84
2023/04/06 01:49:55;;;;;;;;;;;;;;;20.90;35.48;100339.89;103649;1291;61253;-84
2023/04/06 01:52:20;;;;;;;;;;;;;;;20.90;35.47;100338.27;103673;1287;61382;-83
2023/04/06 01:54:46;;;;;;;;;;;;;;;20.90;35.27;100331.84;103800;1289;61329;-83
2023/04/06 01:57:12;;;;;;;;;;;;;;;20.90;35.48;100328.95;103741;1286;61406;-83
2023/04/06 01:59:38;;;;;;;;;;;;;;;20.90;35.39;100328.67;103640;1291;61387;-83
2023/04/06 02:02:03;;;;;;;;;;;;;;;20.91;35.31;100328.36;103851;1291;62052;-83
2023/04/06 02:04:29;;;;;;;;;;;;;;;20.90;35.38;100324.26;103732;1291;72468;-84
2023/04/06 02:06:55;;;;;;;;;;;;;;;20.90;35.30;100318.16;103595;1291;61359;-83
2023/04/06 02:09:21;;;;;;;;;;;;;;;20.90;35.31;100316.02;103683;1291;61508;-83
2023/04/06 02:11:46;;;;;;;;;;;;;;;20.90;35.29;100316.23;103717;1291;61294;-83
2023/04/06 02:14:12;;;;;;;;;;;;;;;20.90;35.37;100312.16;103675;1286;61364;-83
2023/04/06 02:16:38;;;;;;;;;;;;;;;20.90;35.65;100309.43;103756;1286;62421;-83
2023/04/06 02:19:03;;;;;;;;;;;;;;;20.90;35.26;100316.14;103655;1286;61673;-83
2023/04/06 02:21:29;;;;;;;;;;;;;;;20.90;35.34;100311.48;103713;1286;61384;-84
2023/04/06 02:23:55;;;;;;;;;;;;;;;20.90;35.34;100304.06;103710;1286;61473;-83
2023/04/06 02:26:21;;;;;;;;;;;;;;;20.90;35.39;100306.12;103673;1286;61393;-84
2023/04/06 02:28:47;;;;;;;;;;;;;;;20.90;35.26;100302.65;103698;1286;62602;-83
2023/04/06 02:31:14;;;;;;;;;;;;;;;20.89;35.51;100302.84;103599;1287;61990;-83
2023/04/06 02:33:40;;;;;;;;;;;;;;;20.90;35.40;100304.68;103762;1291;61291;-83
2023/04/06 02:36:05;;;;;;;;;;;;;;;20.90;35.34;100304.68;103760;1290;61398;-84
2023/04/06 02:38:31;;;;;;;;;;;;;;;20.90;35.24;100303.54;103926;1291;61537;-83
2023/04/06 02:40:56;;;;;;;;;;;;;;;20.90;35.34;100298.52;104224;1290;62321;-82
2023/04/06 02:43:22;;;;;;;;;;;;;;;20.90;35.42;100295.18;103739;1286;61979;-84
2023/04/06 02:45:48;;;;;;;;;;;;;;;20.90;35.30;100295.56;103716;1286;61288;-83
2023/04/06 02:48:14;;;;;;;;;;;;;;;20.90;35.25;100295.18;103673;1286;62526;-82
2023/04/06 02:50:40;;;;;;;;;;;;;;;20.90;35.21;100297.27;103741;1286;61384;-83
2023/04/06 02:53:06;;;;;;;;;;;;;;;20.90;35.32;100294.94;103811;1291;62085;-83
2023/04/06 02:55:32;;;;;;;;;;;;;;;20.90;35.38;100295.45;103774;1291;61383;-84
2023/04/06 02:57:57;;;;;;;;;;;;;;;20.91;35.22;100297.77;103653;1289;61447;-83
2023/04/06 03:00:23;;;;;;;;;;;;;;;20.90;35.34;100295.63;103784;1290;61349;-84
2023/04/06 03:02:48;;;;;;;;;;;;;;;20.90;35.17;100294.05;103699;1286;61962;-83
2023/04/06 03:05:14;;;;;;;;;;;;;;;20.91;35.18;100299.91;103605;1286;61476;-83
2023/04/06 03:07:40;;;;;;;;;;;;;;;20.90;35.17;100297.63;103715;1291;61282;-83
2023/04/06 03:10:05;;;;;;;;;;;;;;;20.90;35.24;100300.52;103776;1292;61462;-84
2023/04/06 03:12:31;;;;;;;;;;;;;;;20.90;35.18;100295.67;103685;1289;62478;-82
2023/04/06 03:14:56;;;;;;;;;;;;;;;20.90;35.22;100294.58;103732;1291;61387;-83
2023/04/06 03:17:22;;;;;;;;;;;;;;;20.90;35.23;100294.58;103719;1286;62516;-84
2023/04/06 03:19:47;;;;;;;;;;;;;;;20.90;35.21;100296.02;103793;1291;61814;-83
2023/04/06 03:22:13;;;;;;;;;;;;;;;20.90;35.22;100294.95;103554;1286;62488;-83
2023/04/06 03:24:38;;;;;;;;;;;;;;;20.90;35.28;100295.83;103735;1290;61390;-83
2023/04/06 03:27:04;;;;;;;;;;;;;;;20.90;35.21;100294.38;103695;1292;61531;-83
2023/04/06 03:29:31;;;;;;;;;;;;;;;20.91;35.23;100294.71;103705;1286;61842;-84
2023/04/06 03:31:57;;;;;;;;;;;;;;;20.90;35.12;100293.70;103734;1286;61265;-83
2023/04/06 03:34:22;;;;;;;;;;;;;;;20.91;35.22;100292.58;103785;1291;62507;-83
2023/04/06 03:36:48;;;;;;;;;;;;;;;20.91;35.20;100293.64;103699;1291;61432;-83
2023/04/06 03:39:13;;;;;;;;;;;;;;;20.91;35.06;100293.98;103762;1286;61819;-83
2023/04/06 03:41:39;;;;;;;;;;;;;;;20.91;35.15;100293.64;103666;1292;62159;-83
2023/04/06 03:44:05;;;;;;;;;;;;;;;20.90;35.17;100297.80;103726;1290;61480;-83
2023/04/06 03:46:32;;;;;;;;;;;;;;;20.90;35.15;100293.20;103632;1291;61419;-83
2023/04/06 03:48:57;;;;;;;;;;;;;;;20.89;35.07;100290.73;103732;1291;61647;-82
2023/04/06 03:51:23;;;;;;;;;;;;;;;20.88;35.04;100292.45;103745;1291;61997;-83
2023/04/06 03:53:48;;;;;;;;;;;;;;;20.87;35.12;100291.29;103724;1286;61406;-83
2023/04/06 03:56:14;;;;;;;;;;;;;;;20.86;35.21;100289.77;103815;1292;62560;-83
2023/04/06 03:58:40;;;;;;;;;;;;;;;20.85;35.02;100292.33;103765;1289;73294;-83
2023/04/06 04:01:05;;;;;;;;;;;;;;;20.84;35.22;100294.73;103689;1289;61400;-83
2023/04/06 04:03:33;;;;;;;;;;;;;;;20.82;35.20;100293.30;103719;1286;61404;-84
2023/04/06 04:05:58;;;;;;;;;;;;;;;20.80;35.08;100290.59;103724;1290;61498;-83
2023/04/06 04:08:24;;;;;;;;;;;;;;;20.79;35.15;100291.40;103737;1290;62551;-84
2023/04/06 04:10:50;;;;;;;;;;;;;;;20.77;34.99;100292.74;103703;1290;61393;-83
2023/04/06 04:13:15;;;;;;;;;;;;;;;20.75;35.07;100293.99;103779;1291;61410;-82
2023/04/06 04:15:41;;;;;;;;;;;;;;;20.71;34.98;100291.63;104050;1286;61484;-82
2023/04/06 04:18:06;;;;;;;;;;;;;;;20.67;34.92;100293.14;103739;1291;61469;-83
2023/04/06 04:20:32;;;;;;;;;;;;;;;20.64;34.91;100295.21;103685;1291;61394;-84
2023/04/06 04:23:00;;;;;;;;;;;;;;;20.59;35.04;100299.29;103675;1286;62571;-84
2023/04/06 04:25:26;;;;;;;;;;;;;;;20.53;34.92;100298.71;103799;1289;61387;-83
2023/04/06 04:27:51;;;;;;;;;;;;;;;20.49;35.07;100303.48;103808;1286;61383;-83
2023/04/06 04:30:17;;;;;;;;;;;;;;;20.45;35.01;100303.77;104128;1287;62505;-83
2023/04/06 04:32:42;;;;;;;;;;;;;;;20.42;34.94;100302.41;104139;1286;61498;-83
2023/04/06 04:35:08;;;;;;;;;;;;;;;20.40;34.96;100296.50;104049;1291;74456;-83
2023/04/06 04:37:35;;;;;;;;;;;;;;;20.37;35.12;100298.14;103883;1289;61356;-84
2023/04/06 04:40:01;;;;;;;;;;;;;;;20.34;35.01;100296.90;103965;1287;61259;-83
2023/04/06 04:42:26;;;;;;;;;;;;;;;20.32;35.08;100297.98;104069;1286;61375;-84
2023/04/06 04:44:52;;;;;;;;;;;;;;;20.29;34.99;100300.86;103972;1290;61835;-82
2023/04/06 04:47:17;;;;;;;;;;;;;;;20.26;35.07;100300.91;104338;1289;61416;-84
2023/04/06 04:49:43;;;;;;;;;;;;;;;20.23;35.00;100302.77;104428;1289;61402;-83
2023/04/06 04:52:09;;;;;;;;;;;;;;;20.19;34.91;100302.69;104393;1286;62018;-83
2023/04/06 04:54:34;;;;;;;;;;;;;;;20.16;35.22;100303.61;104730;1291;61378;-83
2023/04/06 04:57:03;;;;;;;;;;;;;;;20.14;35.06;100302.02;105072;1291;61214;-83
2023/04/06 04:59:35;;;;;;;;;;;;;;;20.10;35.08;100297.31;105480;1286;61370;-83
2023/04/06 05:02:01;;;;;;;;;;;;;;;20.02;34.93;100303.56;105412;1287;61343;-82
2023/04/06 05:04:26;;;;;;;;;;;;;;;19.98;34.88;100306.27;104902;1291;61419;-82
2023/04/06 05:07:12;;;;;;;;;;;;;;;19.95;34.96;100308.40;104806;1286;61384;-83
2023/04/06 05:09:38;;;;;;;;;;;;;;;19.94;35.03;100306.70;104929;1286;61335;-83
2023/04/06 05:12:03;;;;;;;;;;;;;;;19.93;34.93;100305.86;104984;1291;61307;-83
2023/04/06 05:14:29;;;;;;;;;;;;;;;19.94;35.06;100305.99;104805;1288;61382;-82
2023/04/06 05:16:55;;;;;;;;;;;;;;;19.95;35.07;100308.60;104902;1286;61285;-82
2023/04/06 05:19:20;;;;;;;;;;;;;;;19.96;35.16;100305.31;104978;1291;61819;-82
2023/04/06 05:21:46;;;;;;;;;;;;;;;19.97;35.06;100308.09;105037;1290;60018;-83
2023/04/06 05:24:11;;;;;;;;;;;;;;;19.98;34.91;100303.04;104943;1286;61346;-82
2023/04/06 05:26:37;;;;;;;;;;;;;;;19.98;34.93;100301.25;104801;1286;61237;-82
2023/04/06 05:29:02;;;;;;;;;;;;;;;19.99;34.94;100301.73;104966;1286;61447;-83
2023/04/06 05:31:28;;;;;;;;;;;;;;;20.00;34.84;100300.39;104941;1286;61375;-82
2023/04/06 05:33:53;;;;;;;;;;;;;;;20.01;34.83;100301.92;104928;1286;61291;-82
2023/04/06 05:36:19;;;;;;;;;;;;;;;20.02;34.83;100302.57;104910;1292;61607;-82
2023/04/06 05:38:44;;;;;;;;;;;;;;;20.02;34.82;100299.98;104810;1287;61259;-83
2023/04/06 05:41:10;;;;;;;;;;;;;;;20.03;34.87;100300.11;104849;1287;62490;-82
2023/04/06 05:43:36;;;;;;;;;;;;;;;20.04;34.93;100298.23;105029;1289;61314;-82
2023/04/06 05:46:01;;;;;;;;;;;;;;;20.05;35.01;100299.59;104958;1290;61263;-82
2023/04/06 05:48:27;;;;;;;;;;;;;;;20.06;34.89;100294.73;104928;1286;59569;-82
2023/04/06 05:50:53;;;;;;;;;;;;;;;20.06;34.85;100295.96;104797;1289;61320;-84
2023/04/06 05:53:21;;;;;;;;;;;;;;;20.06;34.74;100289.70;105274;1292;75142;-84
2023/04/06 05:55:52;;;;;;;;;;;;;;;20.07;34.70;100284.15;105047;1292;61289;-83
2023/04/06 05:58:22;;;;;;;;;;;;;;;20.05;34.78;100284.23;104928;1286;61268;-83
2023/04/06 06:00:55;;;;;;;;;;;;;;;20.04;35.04;100283.06;105211;1287;73537;-83
2023/04/06 06:03:22;;;;;;;;;;;;;;;20.04;35.00;100285.08;105304;1287;75303;-83
2023/04/06 06:05:48;;;;;;;;;;;;;;;20.01;34.89;100283.85;105324;1286;61133;-83
2023/04/06 06:08:13;;;;;;;;;;;;;;;19.97;34.80;100284.55;105345;1286;61314;-84
2023/04/06 06:10:40;;;;;;;;;;;;;;;19.95;34.93;100283.27;105517;1286;60043;-84
2023/04/06 06:13:06;;;;;;;;;;;;;;;19.94;34.75;100281.68;105291;1285;61285;-84
2023/04/06 06:15:31;;;;;;;;;;;;;;;19.96;34.92;100281.77;104991;1286;61416;-83
2023/04/06 06:17:57;;;;;;;;;;;;;;;19.98;34.75;100279.09;104663;1292;61461;-83
2023/04/06 06:20:22;;;;;;;;;;;;;;;19.98;34.85;100278.90;104738;1286;61409;-84
2023/04/06 06:22:49;;;;;;;;;;;;;;;20.00;34.91;100278.24;104804;1289;61266;-84
2023/04/06 06:25:15;;;;;;;;;;;;;;;20.02;34.73;100278.27;104798;1286;61266;-83
2023/04/06 06:27:41;;;;;;;;;;;;;;;20.03;34.85;100275.29;104790;1286;61379;-84
2023/04/06 06:30:07;;;;;;;;;;;;;;;20.07;34.80;100273.97;104780;1286;61385;-83
2023/04/06 06:32:32;;;;;;;;;;;;;;;20.10;34.62;100275.48;104708;1286;61250;-84
2023/04/06 06:34:58;;;;;;;;;;;;;;;20.12;34.62;100274.95;104740;1286;61345;-82
2023/04/06 06:37:24;;;;;;;;;;;;;;;20.14;34.64;100277.92;104603;1286;61318;-82
2023/04/06 06:39:49;;;;;;;;;;;;;;;20.13;34.48;100280.81;104865;1286;61333;-82
2023/04/06 06:42:16;;;;;;;;;;;;;;;20.11;34.70;100283.11;104834;1288;61297;-82
2023/04/06 06:44:41;;;;;;;;;;;;;;;20.09;34.61;100286.13;104677;1289;61240;-83
2023/04/06 06:47:06;;;;;;;;;;;;;;;20.06;34.59;100290.05;104697;1286;64537;-83
2023/04/06 06:49:32;;;;;;;;;;;;;;;20.03;34.54;100287.10;104850;1286;61468;-83
2023/04/06 06:51:57;;;;;;;;;;;;;;;19.97;34.62;100291.48;105241;1286;61384;-85
2023/04/06 06:54:23;;;;;;;;;;;;;;;19.91;34.52;100294.44;105382;1287;61327;-84
2023/04/06 06:56:50;;;;;;;;;;;;;;;19.83;34.62;100293.60;105721;1286;71556;-82
2023/04/06 06:59:16;;;;;;;;;;;;;;;19.78;34.82;100295.67;105464;1288;61438;-83
2023/04/06 07:01:41;;;;;;;;;;;;;;;19.79;34.84;100295.45;105396;1285;61378;-83
2023/04/06 07:04:08;;;;;;;;;;;;;;;19.79;34.94;100291.52;104907;1291;736861;-82
2023/04/06 07:06:35;;;;;;;;;;;;;;;19.79;34.84;100297.09;105348;1291;59527;-82
2023/04/06 07:09:02;;;;;;;;;;;;;;;19.79;34.94;100292.44;105080;1289;61206;-83
2023/04/06 07:11:28;;;;;;;;;;;;;;;19.78;35.05;100293.56;105365;1286;61288;-85
2023/04/06 07:13:54;;;;;;;;;;;;;;;19.78;35.19;100296.42;105308;1286;61410;-82
2023/04/06 07:16:19;;;;;;;;;;;;;;;19.77;35.21;100299.70;105356;1285;59311;-82
2023/04/06 07:18:45;;;;;;;;;;;;;;;19.76;35.08;100300.09;105298;1289;61410;-82
2023/04/06 07:21:11;;;;;;;;;;;;;;;19.77;35.28;100302.21;105304;1287;61057;-83
2023/04/06 07:23:36;;;;;;;;;;;;;;;19.78;35.28;100301.77;105446;1289;61701;-82
2023/04/06 07:26:04;;;;;;;;;;;;;;;19.79;35.31;100297.07;105268;1286;61384;-83
2023/04/06 07:28:30;;;;;;;;;;;;;;;19.80;35.42;100295.77;105030;1286;73787;-82
2023/04/06 07:30:55;;;;;;;;;;;;;;;19.81;35.44;100298.20;104999;1289;59413;-82
2023/04/06 07:33:21;;;;;;;;;;;;;;;19.82;35.23;100298.33;105021;1292;61384;-83
2023/04/06 07:35:47;;;;;;;;;;;;;;;19.82;35.35;100293.63;105106;1286;61339;-82
2023/04/06 07:38:13;;;;;;;;;;;;;;;19.83;35.37;100294.14;105176;1291;60041;-83
2023/04/06 07:40:39;;;;;;;;;;;;;;;19.83;35.27;100293.58;104821;1291;61409;-82
2023/04/06 07:43:04;;;;;;;;;;;;;;;19.83;35.18;100292.32;104866;1286;59533;-82
2023/04/06 07:45:30;;;;;;;;;;;;;;;19.83;35.21;100289.30;105210;1289;62647;-82
2023/04/06 07:47:56;;;;;;;;;;;;;;;19.83;35.13;100287.35;104964;1286;61223;-82
2023/04/06 07:50:22;;;;;;;;;;;;;;;19.83;35.19;100287.15;105050;1286;61310;-82
2023/04/06 07:52:47;;;;;;;;;;;;;;;19.82;35.21;100285.25;104732;1286;61375;-82
2023/04/06 07:55:13;;;;;;;;;;;;;;;19.81;34.97;100284.77;105075;1286;60098;-82
2023/04/06 07:57:38;;;;;;;;;;;;;;;19.81;35.10;100283.17;104924;1286;61352;-83
2023/04/06 08:00:04;;;;;;;;;;;;;;;19.80;34.95;100283.40;104756;1286;60592;-81
2023/04/06 08:02:31;;;;;;;;;;;;;;;19.79;34.98;100283.11;105012;1286;61403;-81
2023/04/06 08:04:57;;;;;;;;;;;;;;;19.78;34.94;100282.14;105139;1286;61391;-82
2023/04/06 08:07:22;;;;;;;;;;;;;;;19.75;34.92;100281.40;105185;1286;59443;-82
2023/04/06 08:09:48;;;;;;;;;;;;;;;19.75;35.05;100279.07;105379;1285;59786;-82
2023/04/06 08:12:14;;;;;;;;;;;;;;;19.76;35.28;100280.13;105363;1286;61375;-81
2023/04/06 08:14:39;;;;;;;;;;;;;;;19.76;35.34;100273.46;105331;1290;59369;-81
2023/04/06 08:17:05;;;;;;;;;;;;;;;19.78;35.48;100273.90;105045;1288;74394;-80
2023/04/06 08:19:31;;;;;;;;;;;;;;;19.80;35.53;100276.98;105034;1286;61272;-81
2023/04/06 08:21:56;;;;;;;;;;;;;;;19.80;35.49;100272.34;105140;1285;59398;-81
2023/04/06 08:24:22;;;;;;;;;;;;;;;19.81;35.54;100272.11;105125;1288;61019;-81
2023/04/06 08:26:48;;;;;;;;;;;;;;;19.83;35.43;100273.95;105010;1291;61294;-81
2023/04/06 08:29:14;;;;;;;;;;;;;;;19.86;35.33;100272.13;105172;1291;61311;-81
2023/04/06 08:31:39;;;;;;;;;;;;;;;19.91;35.27;100271.17;105234;1286;60045;-81
2023/04/06 08:34:07;;;;;;;;;;;;;;;19.97;35.31;100269.13;105225;1286;61154;-82
2023/04/06 08:36:33;;;;;;;;;;;;;;;20.03;35.27;100265.67;104966;1286;72413;-82
2023/04/06 08:38:59;;;;;;;;;;;;;;;20.08;35.33;100267.25;105028;1286;59507;-83
2023/04/06 08:41:24;;;;;;;;;;;;;;;20.13;35.16;100271.91;105172;1286;61352;-84
2023/04/06 08:43:53;;;;;;;;;;;;;;;20.14;35.11;100267.02;105049;1286;61406;-81
2023/04/06 08:46:18;;;;;;;;;;;;;;;20.12;35.12;100268.90;104984;1291;61266;-81
2023/04/06 08:48:44;;;;;;;;;;;;;;;20.11;35.22;100270.75;105007;1286;61241;-81
2023/04/06 08:51:10;;;;;;;;;;;;;;;20.10;35.07;100269.38;104863;1286;62060;-81
2023/04/06 08:53:36;;;;;;;;;;;;;;;20.09;35.02;100267.89;104822;1286;61398;-81
2023/04/06 08:56:01;;;;;;;;;;;;;;;20.08;34.92;100271.73;104833;1286;61285;-82
2023/04/06 08:58:28;;;;;;;;;;;;;;;20.07;35.09;100275.55;105092;1286;61317;-81
2023/04/06 09:00:53;;;;;;;;;;;;;;;20.07;35.04;100273.36;104931;1291;75602;-82
2023/04/06 09:03:19;;;;;;;;;;;;;;;20.07;35.06;100271.39;105151;1286;61657;-82
2023/04/06 09:05:46;;;;;;;;;;;;;;;20.08;35.02;100268.70;106308;1287;59073;-82
2023/04/06 09:08:11;;;;;;;;;;;;;;;20.09;35.23;100274.27;106467;1286;59051;-83
2023/04/06 09:10:40;;;;;;;;;;;;;;;20.06;35.16;100274.33;106401;1285;59143;-82
2023/04/06 09:13:08;;;;;;;;;;;;;;;20.03;35.39;100270.63;106361;1286;59862;-82
2023/04/06 09:15:33;;;;;;;;;;;;;;;20.05;35.49;100269.11;106251;1286;61151;-82
2023/04/06 09:17:59;;;;;;;;;;;;;;;20.06;35.42;100269.89;106403;1286;59880;-82
2023/04/06 09:20:28;;;;;;;;;;;;;;;20.07;35.43;100271.77;104995;1285;61298;-82
2023/04/06 09:22:53;;;;;;;;;;;;;;;20.07;35.33;100271.02;104955;1286;61027;-83
2023/04/06 09:25:22;;;;;;;;;;;;;;;20.04;35.35;100267.55;104781;1286;61279;-82
2023/04/06 09:27:49;;;;;;;;;;;;;;;20.05;35.31;100274.11;104555;1286;72771;-84
2023/04/06 09:30:16;;;;;;;;;;;;;;;20.05;35.32;100271.89;104455;1286;73216;-84
2023/04/06 09:32:48;;;;;;;;;;;;;;;20.07;35.26;100278.04;104617;1285;61039;-84
2023/04/06 09:35:15;;;;;;;;;;;;;;;20.07;35.32;100272.12;104443;1285;61484;-84
2023/04/06 09:37:41;;;;;;;;;;;;;;;20.09;35.30;100270.23;104657;1286;59879;-81
2023/04/06 09:40:07;;;;;;;;;;;;;;;20.09;35.04;100270.05;104621;1286;61324;-81
2023/04/06 09:42:33;;;;;;;;;;;;;;;20.08;35.07;100267.26;104782;1286;61310;-81
2023/04/06 09:44:58;;;;;;;;;;;;;;;20.07;34.89;100266.23;104840;1286;61287;-82
2023/04/06 09:47:24;;;;;;;;;;;;;;;20.06;34.96;100270.95;104927;1285;61390;-82
2023/04/06 09:49:50;;;;;;;;;;;;;;;20.04;34.80;100265.95;105295;1287;61419;-82
2023/04/06 09:52:15;;;;;;;;;;;;;;;20.01;34.83;100266.38;106105;1285;75002;-84
2023/04/06 09:54:41;;;;;;;;;;;;;;;19.99;34.76;100267.07;104893;1285;61304;-82
2023/04/06 09:57:12;;;;;;;;;;;;;;;19.97;34.66;100269.65;104758;1286;61368;-82
2023/04/06 09:59:45;;;;;;;;;;;;;;;19.97;34.72;100267.01;104814;1285;72584;-81
2023/04/06 10:02:15;;;;;;;;;;;;;;;19.96;34.67;100266.73;105148;1288;74477;-81
2023/04/06 10:04:43;;;;;;;;;;;;;;;19.91;34.69;100269.03;105505;1286;61470;-81
2023/04/06 10:07:12;;;;;;;;;;;;;;;19.88;34.86;100269.48;105574;1287;60912;-81
2023/04/06 10:09:38;;;;;;;;;;;;;;;19.87;34.86;100272.02;105435;1286;73381;-82
2023/04/06 10:12:04;;;;;;;;;;;;;;;19.86;34.72;100269.77;105567;1285;59375;-83
2023/04/06 10:14:30;;;;;;;;;;;;;;;19.80;34.69;100270.95;105297;1286;60184;-81
2023/04/06 10:16:56;;;;;;;;;;;;;;;19.82;35.04;100274.23;105349;1286;61237;-82
2023/04/06 10:19:27;;;;;;;;;;;;;;;19.84;34.90;100277.27;105472;1285;60097;-81
2023/04/06 10:21:54;;;;;;;;;;;;;;;19.85;34.93;100270.73;105186;1286;75358;-81
2023/04/06 10:24:19;;;;;;;;;;;;;;;19.86;34.98;100270.14;106222;1286;59937;-82
2023/04/06 10:27:06;;;;;;;;;;;;;;;19.87;35.16;100275.08;105829;1285;59859;-81
2023/04/06 10:29:45;;;;;;;;;;;;;;;19.87;35.14;100270.77;104942;1286;73291;-82
2023/04/06 10:32:10;;;;;;;;;;;;;;;19.88;35.08;100274.64;104827;1285;74325;-81
2023/04/06 10:34:36;;;;;;;;;;;;;;;19.88;34.87;100270.39;104954;1285;59832;-84
2023/04/06 10:37:14;;;;;;;;;;;;;;;19.89;34.86;100272.57;104911;1286;61282;-83
2023/04/06 10:39:46;;;;;;;;;;;;;;;19.91;34.91;100268.52;104764;1286;72529;-84
2023/04/06 10:42:12;;;;;;;;;;;;;;;19.92;34.79;100267.91;105035;1288;75491;-84
2023/04/06 10:44:42;;;;;;;;;;;;;;;19.91;34.83;100267.77;104964;1286;61375;-84
2023/04/06 10:47:14;;;;;;;;;;;;;;;19.91;34.78;100266.02;105288;1286;61281;-84
2023/04/06 10:49:41;;;;;;;;;;;;;;;19.87;34.75;100262.75;105074;1284;73661;-82
2023/04/06 10:52:06;;;;;;;;;;;;;;;19.87;34.77;100265.43;104825;1285;61406;-81
2023/04/06 10:54:32;;;;;;;;;;;;;;;19.87;34.78;100262.54;104943;1286;61413;-82
2023/04/06 10:56:58;;;;;;;;;;;;;;;19.87;34.75;100257.90;104853;1285;61296;-84
2023/04/06 10:59:25;;;;;;;;;;;;;;;19.88;34.68;100262.88;105215;1286;61387;-83
2023/04/06 11:01:51;;;;;;;;;;;;;;;19.89;34.86;100258.64;105268;1286;61299;-83
2023/04/06 11:04:17;;;;;;;;;;;;;;;19.91;34.88;100255.31;105364;1286;59519;-83
2023/04/06 11:06:45;;;;;;;;;;;;;;;19.93;34.77;100257.09;104985;1286;59922;-84
2023/04/06 11:09:11;;;;;;;;;;;;;;;19.95;34.88;100252.89;105359;1286;61342;-82
2023/04/06 11:11:38;;;;;;;;;;;;;;;19.96;35.05;100251.34;105460;1286;61426;-83
2023/04/06 11:14:03;;;;;;;;;;;;;;;19.98;34.92;100251.73;105355;1286;61539;-83
2023/04/06 11:16:30;;;;;;;;;;;;;;;20.00;35.02;100249.08;105578;1286;61276;-83
2023/04/06 11:18:56;;;;;;;;;;;;;;;20.01;34.85;100247.79;105523;1286;61266;-83
2023/04/06 11:21:32;;;;;;;;;;;;;;;20.02;34.98;100240.54;105284;1285;59493;-83
2023/04/06 11:24:05;;;;;;;;;;;;;;;20.04;34.83;100239.36;105094;1289;61222;-83
2023/04/06 11:26:31;;;;;;;;;;;;;;;20.04;34.78;100239.85;105070;1291;61320;-83
2023/04/06 11:28:56;;;;;;;;;;;;;;;20.05;34.94;100239.46;104761;1288;62586;-81
2023/04/06 11:31:25;;;;;;;;;;;;;;;20.05;34.83;100235.16;105139;1286;61249;-83
2023/04/06 11:33:55;;;;;;;;;;;;;;;20.05;34.71;100237.32;104813;1285;61342;-82
2023/04/06 11:36:20;;;;;;;;;;;;;;;20.05;34.68;100239.43;104635;1289;61628;-84
2023/04/06 11:38:46;;;;;;;;;;;;;;;20.05;34.62;100235.71;104523;1285;59397;-83
2023/04/06 11:41:11;;;;;;;;;;;;;;;20.05;34.71;100235.14;104691;1286;61452;-82
2023/04/06 11:43:38;;;;;;;;;;;;;;;20.05;34.74;100234.20;104623;1286;61416;-82
2023/04/06 11:46:03;;;;;;;;;;;;;;;20.06;34.62;100234.91;104621;1286;61192;-82
2023/04/06 11:48:29;;;;;;;;;;;;;;;20.07;34.57;100232.51;104511;1286;61468;-82
2023/04/06 11:51:04;;;;;;;;;;;;;;;20.06;34.40;100233.60;104298;1286;72604;-82
2023/04/06 11:53:33;;;;;;;;;;;;;;;20.06;34.45;100230.80;104606;1286;75316;-83
2023/04/06 11:55:59;;;;;;;;;;;;;;;20.06;34.59;100229.55;104887;1286;59984;-83
2023/04/06 11:58:25;;;;;;;;;;;;;;;20.06;34.59;100223.46;104664;1288;61314;-83
2023/04/06 12:00:50;;;;;;;;;;;;;;;19.96;34.50;100225.30;104685;1286;62501;-83
2023/04/06 12:03:16;;;;;;;;;;;;;;;19.86;34.48;100226.37;104740;1291;61174;-81
2023/04/06 12:05:43;;;;;;;;;;;;;;;19.83;34.48;100219.63;104987;1286;61347;-81
2023/04/06 12:08:08;;;;;;;;;;;;;;;19.81;34.38;100220.48;104911;1286;61259;-82
2023/04/06 12:10:36;;;;;;;;;;;;;;;19.80;34.36;100216.45;104926;1286;61313;-81
2023/04/06 12:13:02;;;;;;;;;;;;;;;19.79;34.30;100213.89;105183;1286;61375;-82
2023/04/06 12:15:28;;;;;;;;;;;;;;;19.78;34.37;100212.15;104657;1286;61298;-82
2023/04/06 12:17:53;;;;;;;;;;;;;;;19.79;34.39;100212.28;104560;1288;61297;-81
2023/04/06 12:20:19;;;;;;;;;;;;;;;19.79;34.16;100207.21;104211;1289;61355;-82